createdAt,value
2023-05-15T00:00:04.729Z,12.12
2023-05-15T00:01:04.752Z,12.12
2023-05-15T00:02:04.744Z,12.12
2023-05-15T00:03:04.869Z,12.06
2023-05-15T00:04:04.712Z,12.06
2023-05-15T00:05:04.746Z,12.06
2023-05-15T00:06:04.725Z,12.00
2023-05-15T00:07:04.734Z,12.00
2023-05-15T00:09:04.727Z,12.00
2023-05-15T00:10:04.705Z,11.94
2023-05-15T00:11:04.729Z,11.94
2023-05-15T00:12:04.729Z,11.88
2023-05-15T00:13:04.754Z,11.88
2023-05-15T00:14:04.763Z,11.88
2023-05-15T00:15:04.776Z,11.88
2023-05-15T00:16:04.753Z,11.88
2023-05-15T00:18:04.765Z,11.81
2023-05-15T00:19:04.849Z,11.81
2023-05-15T00:21:04.747Z,11.75
2023-05-15T00:22:04.732Z,11.75
2023-05-15T00:23:04.728Z,11.75
2023-05-15T00:24:04.730Z,11.69
2023-05-15T00:25:04.758Z,11.69
2023-05-15T00:26:04.753Z,11.62
2023-05-15T00:27:04.719Z,11.62
2023-05-15T00:28:04.814Z,11.62
2023-05-15T00:29:04.733Z,11.56
2023-05-15T00:30:04.762Z,11.56
2023-05-15T00:31:04.805Z,11.56
2023-05-15T00:32:04.752Z,11.56
2023-05-15T00:33:04.789Z,11.56
2023-05-15T00:34:04.769Z,11.50
2023-05-15T00:36:04.750Z,11.50
2023-05-15T00:37:04.763Z,11.44
2023-05-15T00:39:04.780Z,11.44
2023-05-15T00:40:04.769Z,11.38
2023-05-15T00:41:04.763Z,11.38
2023-05-15T00:42:04.793Z,11.38
2023-05-15T00:43:04.765Z,11.38
2023-05-15T00:44:04.800Z,11.38
2023-05-15T00:45:04.772Z,11.31
2023-05-15T00:46:04.755Z,11.31
2023-05-15T00:47:04.768Z,11.31
2023-05-15T00:48:04.794Z,11.31
2023-05-15T00:49:04.794Z,11.25
2023-05-15T00:50:04.769Z,11.25
2023-05-15T00:51:04.791Z,11.25
2023-05-15T00:52:04.768Z,11.25
2023-05-15T00:53:04.771Z,11.25
2023-05-15T00:54:04.756Z,11.25
2023-05-15T00:55:04.782Z,11.19
2023-05-15T00:56:04.783Z,11.19
2023-05-15T00:57:04.784Z,11.19
2023-05-15T00:58:04.782Z,11.19
2023-05-15T00:59:04.824Z,11.19
2023-05-15T01:00:04.807Z,11.12
2023-05-15T01:01:06.263Z,11.12
2023-05-15T01:02:04.812Z,11.12
2023-05-15T01:03:04.853Z,11.12
2023-05-15T01:04:04.799Z,11.12
2023-05-15T01:05:04.790Z,11.12
2023-05-15T01:06:04.775Z,11.06
2023-05-15T01:07:04.806Z,11.06
2023-05-15T01:09:04.796Z,11.06
2023-05-15T01:10:04.776Z,11.06
2023-05-15T01:11:04.783Z,11.06
2023-05-15T01:12:04.845Z,11.06
2023-05-15T01:13:04.788Z,11.00
2023-05-15T01:14:04.802Z,11.00
2023-05-15T01:15:04.869Z,11.00
2023-05-15T01:16:04.809Z,11.00
2023-05-15T01:17:04.795Z,11.00
2023-05-15T01:18:04.843Z,11.00
2023-05-15T01:19:04.950Z,11.00
2023-05-15T01:21:04.812Z,11.00
2023-05-15T01:22:04.793Z,10.94
2023-05-15T01:23:04.830Z,10.94
2023-05-15T01:24:04.830Z,11.00
2023-05-15T01:26:04.786Z,10.94
2023-05-15T01:27:04.788Z,11.00
2023-05-15T01:28:04.832Z,10.94
2023-05-15T01:29:04.817Z,10.94
2023-05-15T01:30:04.818Z,10.94
2023-05-15T01:31:04.834Z,10.94
2023-05-15T01:32:04.794Z,10.94
2023-05-15T01:33:04.843Z,10.94
2023-05-15T01:35:04.820Z,10.94
2023-05-15T01:36:04.814Z,10.94
2023-05-15T01:37:04.821Z,11.00
2023-05-15T01:39:04.822Z,11.00
2023-05-15T01:40:04.853Z,11.00
2023-05-15T01:42:04.816Z,11.00
2023-05-15T01:43:04.810Z,11.00
2023-05-15T01:44:04.855Z,11.00
2023-05-15T01:46:04.813Z,11.00
2023-05-15T01:47:04.831Z,11.00
2023-05-15T01:49:04.887Z,11.00
2023-05-15T01:50:04.812Z,11.00
2023-05-15T01:51:04.846Z,11.00
2023-05-15T01:52:04.816Z,11.00
2023-05-15T01:53:04.813Z,11.00
2023-05-15T01:54:04.817Z,11.00
2023-05-15T01:55:04.842Z,11.00
2023-05-15T01:56:04.841Z,10.94
2023-05-15T01:57:04.816Z,10.94
2023-05-15T01:58:04.822Z,10.94
2023-05-15T02:00:04.903Z,10.94
2023-05-15T02:01:04.829Z,10.94
2023-05-15T02:02:04.847Z,10.94
2023-05-15T02:03:04.988Z,10.94
2023-05-15T02:04:04.982Z,10.94
2023-05-15T02:05:04.859Z,10.94
2023-05-15T02:06:04.821Z,10.94
2023-05-15T02:07:04.839Z,10.88
2023-05-15T02:08:04.853Z,10.88
2023-05-15T02:09:04.837Z,10.88
2023-05-15T02:10:04.866Z,10.88
2023-05-15T02:12:04.851Z,10.81
2023-05-15T02:13:04.868Z,10.81
2023-05-15T02:14:04.858Z,10.81
2023-05-15T02:15:04.878Z,10.81
2023-05-15T02:16:04.962Z,10.81
2023-05-15T02:17:04.902Z,10.81
2023-05-15T02:18:04.833Z,10.75
2023-05-15T02:19:04.878Z,10.75
2023-05-15T02:20:04.855Z,10.75
2023-05-15T02:22:04.871Z,10.75
2023-05-15T02:23:04.859Z,10.75
2023-05-15T02:24:04.862Z,10.75
2023-05-15T02:25:04.915Z,10.75
2023-05-15T02:27:04.886Z,10.75
2023-05-15T02:28:04.908Z,10.69
2023-05-15T02:30:04.876Z,10.69
2023-05-15T02:31:04.897Z,10.69
2023-05-15T02:33:04.895Z,10.69
2023-05-15T02:35:04.871Z,10.62
2023-05-15T02:36:04.900Z,10.62
2023-05-15T02:37:04.865Z,10.62
2023-05-15T02:38:04.880Z,10.62
2023-05-15T02:39:04.851Z,10.62
2023-05-15T02:40:04.864Z,10.62
2023-05-15T02:41:04.850Z,10.62
2023-05-15T02:42:04.866Z,10.62
2023-05-15T02:43:04.888Z,10.62
2023-05-15T02:44:04.864Z,10.62
2023-05-15T02:45:04.891Z,10.62
2023-05-15T02:46:04.903Z,10.62
2023-05-15T02:47:04.907Z,10.62
2023-05-15T02:48:04.905Z,10.62
2023-05-15T02:49:04.874Z,10.62
2023-05-15T02:50:04.889Z,10.62
2023-05-15T02:51:04.890Z,10.62
2023-05-15T02:52:04.904Z,10.62
2023-05-15T02:53:04.894Z,10.62
2023-05-15T02:54:04.873Z,10.62
2023-05-15T02:55:04.905Z,10.62
2023-05-15T02:56:04.926Z,10.62
2023-05-15T02:58:04.900Z,10.62
2023-05-15T02:59:04.884Z,10.69
2023-05-15T03:00:04.912Z,10.69
2023-05-15T03:02:04.867Z,10.69
2023-05-15T03:03:04.859Z,10.69
2023-05-15T03:04:04.936Z,10.69
2023-05-15T03:05:04.891Z,10.69
2023-05-15T03:06:04.914Z,10.69
2023-05-15T03:08:04.891Z,10.69
2023-05-15T03:09:04.894Z,10.75
2023-05-15T03:10:04.890Z,10.75
2023-05-15T03:11:05.492Z,10.75
2023-05-15T03:12:04.990Z,10.75
2023-05-15T03:13:04.927Z,10.75
2023-05-15T03:15:04.910Z,10.75
2023-05-15T03:17:04.972Z,10.75
2023-05-15T03:18:04.924Z,10.75
2023-05-15T03:19:04.922Z,10.75
2023-05-15T03:21:04.901Z,10.75
2023-05-15T03:22:04.958Z,10.75
2023-05-15T03:23:04.938Z,10.75
2023-05-15T03:24:04.921Z,10.75
2023-05-15T03:25:04.905Z,10.75
2023-05-15T03:26:04.975Z,10.75
2023-05-15T03:27:04.894Z,10.75
2023-05-15T03:28:04.936Z,10.75
2023-05-15T03:29:04.906Z,10.75
2023-05-15T03:30:04.896Z,10.88
2023-05-15T03:31:04.974Z,10.88
2023-05-15T03:32:04.946Z,10.81
2023-05-15T03:33:04.983Z,10.81
2023-05-15T03:34:04.931Z,10.81
2023-05-15T03:35:04.966Z,10.75
2023-05-15T03:36:04.921Z,10.75
2023-05-15T03:37:04.938Z,10.75
2023-05-15T03:38:04.884Z,10.75
2023-05-15T03:39:04.950Z,10.75
2023-05-15T03:40:04.959Z,10.75
2023-05-15T03:41:04.924Z,10.75
2023-05-15T03:42:04.943Z,10.75
2023-05-15T03:43:04.937Z,10.75
2023-05-15T03:44:04.930Z,10.75
2023-05-15T03:46:04.966Z,10.88
2023-05-15T03:47:04.947Z,10.88
2023-05-15T03:48:04.964Z,11.00
2023-05-15T03:49:04.921Z,10.94
2023-05-15T03:50:04.931Z,10.94
2023-05-15T03:51:04.917Z,10.88
2023-05-15T03:52:04.945Z,10.88
2023-05-15T03:53:04.913Z,10.88
2023-05-15T03:54:04.907Z,10.81
2023-05-15T03:55:04.951Z,10.81
2023-05-15T03:57:04.948Z,10.81
2023-05-15T03:59:04.910Z,10.81
2023-05-15T04:00:04.932Z,10.81
2023-05-15T04:01:04.982Z,10.81
2023-05-15T04:02:05.734Z,10.81
2023-05-15T04:03:05.096Z,10.81
2023-05-15T04:04:04.957Z,10.81
2023-05-15T04:05:04.991Z,10.81
2023-05-15T04:07:04.964Z,10.94
2023-05-15T04:08:04.931Z,10.88
2023-05-15T04:09:04.944Z,10.88
2023-05-15T04:10:04.990Z,10.81
2023-05-15T04:11:04.924Z,10.81
2023-05-15T04:12:04.960Z,10.81
2023-05-15T04:13:04.980Z,10.81
2023-05-15T04:14:04.967Z,11.00
2023-05-15T04:16:05.031Z,10.88
2023-05-15T04:17:04.965Z,10.88
2023-05-15T04:18:05.027Z,10.88
2023-05-15T04:19:05.024Z,10.88
2023-05-15T04:20:04.929Z,10.88
2023-05-15T04:21:04.941Z,10.88
2023-05-15T04:22:04.974Z,10.88
2023-05-15T04:24:04.949Z,10.88
2023-05-15T04:25:05.011Z,10.88
2023-05-15T04:26:04.951Z,10.94
2023-05-15T04:27:04.971Z,11.00
2023-05-15T04:28:04.959Z,10.88
2023-05-15T04:29:05.082Z,10.88
2023-05-15T04:31:04.949Z,10.94
2023-05-15T04:32:04.981Z,10.94
2023-05-15T04:34:04.979Z,11.12
2023-05-15T04:35:04.949Z,11.25
2023-05-15T04:36:04.980Z,11.19
2023-05-15T04:37:04.985Z,11.19
2023-05-15T04:38:04.986Z,11.19
2023-05-15T04:39:04.995Z,11.12
2023-05-15T04:40:04.997Z,11.12
2023-05-15T04:42:05.008Z,11.12
2023-05-15T04:46:05.036Z,11.19
2023-05-15T04:47:05.000Z,11.25
2023-05-15T04:48:05.051Z,11.25
2023-05-15T04:50:05.004Z,11.31
2023-05-15T04:51:05.003Z,11.31
2023-05-15T04:52:04.980Z,11.31
2023-05-15T04:53:05.002Z,11.38
2023-05-15T04:54:05.009Z,11.38
2023-05-15T04:56:04.968Z,11.38
2023-05-15T04:57:04.995Z,11.44
2023-05-15T04:58:04.988Z,11.44
2023-05-15T04:59:04.994Z,11.50
2023-05-15T05:00:05.022Z,11.50
2023-05-15T05:01:05.061Z,11.50
2023-05-15T05:02:05.026Z,11.50
2023-05-15T05:03:05.098Z,11.56
2023-05-15T05:04:05.045Z,11.69
2023-05-15T05:05:05.033Z,11.69
2023-05-15T05:06:05.031Z,11.69
2023-05-15T05:07:04.997Z,11.69
2023-05-15T05:08:05.004Z,11.75
2023-05-15T05:09:05.040Z,11.75
2023-05-15T05:10:05.013Z,11.75
2023-05-15T05:12:05.037Z,11.81
2023-05-15T05:13:05.012Z,11.81
2023-05-15T05:14:05.042Z,11.75
2023-05-15T05:16:05.117Z,11.81
2023-05-15T05:17:05.017Z,11.81
2023-05-15T05:18:05.072Z,11.88
2023-05-15T05:19:05.093Z,11.94
2023-05-15T05:20:05.057Z,11.94
2023-05-15T05:21:05.016Z,12.06
2023-05-15T05:22:05.038Z,12.12
2023-05-15T05:23:05.046Z,12.19
2023-05-15T05:26:06.098Z,12.50
2023-05-15T05:27:05.030Z,12.50
2023-05-15T05:28:05.022Z,12.56
2023-05-15T05:30:05.007Z,12.62
2023-05-15T05:31:05.084Z,12.69
2023-05-15T05:32:05.048Z,12.69
2023-05-15T05:33:05.122Z,12.75
2023-05-15T05:34:05.039Z,12.81
2023-05-15T05:35:05.050Z,12.88
2023-05-15T05:36:05.051Z,12.94
2023-05-15T05:37:05.056Z,13.00
2023-05-15T05:38:05.062Z,13.12
2023-05-15T05:39:05.050Z,13.25
2023-05-15T05:40:05.041Z,13.44
2023-05-15T05:41:05.056Z,13.44
2023-05-15T05:42:05.037Z,13.50
2023-05-15T05:43:05.073Z,13.69
2023-05-15T05:44:05.036Z,13.88
2023-05-15T05:45:05.071Z,14.06
2023-05-15T05:46:05.061Z,14.50
2023-05-15T05:47:05.123Z,15.62
2023-05-15T05:48:05.125Z,15.62
2023-05-15T05:49:05.079Z,15.50
2023-05-15T05:50:05.054Z,15.31
2023-05-15T05:51:05.090Z,15.50
2023-05-15T05:52:05.072Z,15.44
2023-05-15T05:54:05.075Z,16.62
2023-05-15T05:55:05.180Z,17.12
2023-05-15T05:58:08.640Z,19.31
2023-05-15T05:59:05.037Z,19.81
2023-05-15T06:00:05.159Z,20.12
2023-05-15T06:01:05.028Z,20.44
2023-05-15T06:03:05.165Z,21.06
2023-05-15T06:04:05.118Z,21.38
2023-05-15T06:05:05.096Z,21.56
2023-05-15T06:06:05.115Z,21.69
2023-05-15T06:07:05.171Z,21.88
2023-05-15T06:08:05.057Z,21.94
2023-05-15T06:10:14.134Z,22.12
2023-05-15T06:11:05.109Z,22.25
2023-05-15T06:12:05.094Z,22.25
2023-05-15T06:15:05.094Z,22.31
2023-05-15T06:16:05.144Z,22.31
2023-05-15T06:19:05.211Z,22.31
2023-05-15T06:20:05.109Z,22.38
2023-05-15T06:21:05.068Z,22.38
2023-05-15T06:23:05.102Z,22.31
2023-05-15T06:24:05.387Z,22.25
2023-05-15T06:25:05.157Z,22.25
2023-05-15T06:26:05.089Z,22.31
2023-05-15T06:27:05.102Z,22.38
2023-05-15T06:28:05.118Z,22.44
2023-05-15T06:29:05.126Z,22.50
2023-05-15T06:30:05.162Z,22.69
2023-05-15T06:31:05.127Z,22.75
2023-05-15T06:33:05.120Z,23.00
2023-05-15T06:34:05.118Z,23.12
2023-05-15T06:35:05.205Z,23.25
2023-05-15T06:36:05.058Z,23.38
2023-05-15T06:37:05.117Z,23.50
2023-05-15T06:39:05.130Z,23.81
2023-05-15T06:41:05.148Z,24.06
2023-05-15T06:42:05.099Z,24.25
2023-05-15T06:43:05.164Z,24.50
2023-05-15T06:44:05.122Z,24.62
2023-05-15T06:45:05.188Z,24.75
2023-05-15T06:46:05.164Z,24.81
2023-05-15T06:47:05.196Z,24.94
2023-05-15T06:48:05.255Z,25.12
2023-05-15T06:49:05.158Z,25.25
2023-05-15T06:50:05.304Z,25.38
2023-05-15T06:51:05.140Z,25.50
2023-05-15T06:52:05.198Z,25.62
2023-05-15T06:53:05.097Z,25.75
2023-05-15T06:54:05.116Z,25.88
2023-05-15T06:55:05.123Z,25.88
2023-05-15T06:56:05.135Z,25.94
2023-05-15T06:57:05.147Z,26.00
2023-05-15T06:59:05.156Z,26.06
2023-05-15T07:00:05.131Z,26.19
2023-05-15T07:02:05.199Z,26.25
2023-05-15T07:03:05.210Z,26.25
2023-05-15T07:05:05.113Z,26.31
2023-05-15T07:06:05.178Z,26.38
2023-05-15T07:07:05.168Z,26.44
2023-05-15T07:08:05.157Z,26.50
2023-05-15T07:09:05.200Z,26.56
2023-05-15T07:10:05.171Z,26.56
2023-05-15T07:11:05.463Z,26.56
2023-05-15T07:13:05.174Z,26.62
2023-05-15T07:15:05.227Z,26.75
2023-05-15T07:16:05.134Z,26.81
2023-05-15T07:17:05.229Z,26.94
2023-05-15T07:18:05.538Z,26.94
2023-05-15T07:20:05.229Z,26.94
2023-05-15T07:21:05.168Z,26.94
2023-05-15T07:23:05.203Z,26.94
2023-05-15T07:24:05.227Z,26.88
2023-05-15T07:25:05.230Z,26.88
2023-05-15T07:26:05.157Z,26.88
2023-05-15T07:27:05.152Z,26.88
2023-05-15T07:28:05.189Z,26.88
2023-05-15T07:29:05.163Z,26.88
2023-05-15T07:30:05.185Z,26.81
2023-05-15T07:31:05.180Z,26.88
2023-05-15T07:32:05.216Z,26.88
2023-05-15T07:33:05.023Z,26.88
2023-05-15T07:35:05.141Z,26.81
2023-05-15T07:36:05.166Z,26.88
2023-05-15T07:37:05.121Z,26.94
2023-05-15T07:38:05.150Z,27.00
2023-05-15T07:39:05.154Z,27.00
2023-05-15T07:40:05.148Z,27.06
2023-05-15T07:41:05.164Z,27.06
2023-05-15T07:42:05.256Z,27.12
2023-05-15T07:44:05.166Z,27.12
2023-05-15T07:45:05.221Z,27.19
2023-05-15T07:46:05.237Z,27.25
2023-05-15T07:47:05.166Z,27.31
2023-05-15T07:49:05.168Z,27.38
2023-05-15T07:50:05.167Z,27.38
2023-05-15T07:51:05.144Z,27.44
2023-05-15T07:53:05.170Z,27.50
2023-05-15T07:54:05.164Z,27.56
2023-05-15T07:55:05.192Z,27.56
2023-05-15T07:57:05.152Z,27.44
2023-05-15T07:58:05.176Z,27.50
2023-05-15T07:59:05.150Z,27.50
2023-05-15T08:00:05.174Z,27.50
2023-05-15T08:01:05.176Z,27.50
2023-05-15T08:02:05.164Z,27.50
2023-05-15T08:03:05.102Z,27.50
2023-05-15T08:04:05.248Z,27.50
2023-05-15T08:05:05.152Z,27.50
2023-05-15T08:06:05.187Z,27.50
2023-05-15T08:07:05.023Z,27.56
2023-05-15T08:08:05.176Z,27.56
2023-05-15T08:09:05.204Z,27.50
2023-05-15T08:10:05.203Z,27.56
2023-05-15T08:11:05.211Z,27.50
2023-05-15T08:12:05.181Z,27.50
2023-05-15T08:13:05.202Z,27.50
2023-05-15T08:15:05.225Z,27.56
2023-05-15T08:16:05.254Z,27.50
2023-05-15T08:18:05.239Z,27.38
2023-05-15T08:19:05.274Z,27.44
2023-05-15T08:20:05.179Z,27.38
2023-05-15T08:21:05.198Z,27.38
2023-05-15T08:22:04.987Z,27.38
2023-05-15T08:23:05.033Z,27.31
2023-05-15T08:25:05.018Z,27.12
2023-05-15T08:26:04.985Z,26.94
2023-05-15T08:27:04.981Z,26.88
2023-05-15T08:28:05.043Z,26.88
2023-05-15T08:29:05.168Z,26.88
2023-05-15T08:30:05.216Z,26.88
2023-05-15T08:31:05.217Z,26.88
2023-05-15T08:32:05.180Z,26.81
2023-05-15T08:33:05.280Z,26.81
2023-05-15T08:34:05.302Z,26.81
2023-05-15T08:35:05.195Z,26.81
2023-05-15T08:36:05.281Z,26.81
2023-05-15T08:37:05.204Z,26.81
2023-05-15T08:38:05.202Z,26.56
2023-05-15T08:39:05.227Z,26.50
2023-05-15T08:40:05.192Z,26.50
2023-05-15T08:41:05.054Z,26.50
2023-05-15T08:42:05.187Z,26.50
2023-05-15T08:43:05.169Z,26.56
2023-05-15T08:44:05.186Z,26.56
2023-05-15T08:45:05.228Z,26.56
2023-05-15T08:46:05.190Z,26.50
2023-05-15T08:47:05.209Z,26.56
2023-05-15T08:49:05.206Z,26.56
2023-05-15T08:50:05.232Z,26.50
2023-05-15T08:51:05.242Z,26.50
2023-05-15T08:52:05.198Z,26.44
2023-05-15T08:53:05.223Z,26.38
2023-05-15T08:54:05.243Z,26.19
2023-05-15T08:55:05.191Z,26.06
2023-05-15T08:56:05.197Z,26.00
2023-05-15T08:57:05.245Z,26.00
2023-05-15T08:58:05.217Z,25.94
2023-05-15T08:59:05.239Z,25.81
2023-05-15T09:00:06.081Z,25.81
2023-05-15T09:01:05.258Z,25.75
2023-05-15T09:02:05.182Z,25.75
2023-05-15T09:03:05.378Z,25.62
2023-05-15T09:04:05.307Z,25.56
2023-05-15T09:05:05.268Z,25.44
2023-05-15T09:07:05.253Z,25.19
2023-05-15T09:08:05.273Z,25.12
2023-05-15T09:09:05.309Z,24.88
2023-05-15T09:10:05.264Z,24.75
2023-05-15T09:11:05.234Z,24.75
2023-05-15T09:12:05.282Z,24.81
2023-05-15T09:14:05.106Z,24.69
2023-05-15T09:15:05.281Z,24.56
2023-05-15T09:16:05.259Z,24.44
2023-05-15T09:18:05.038Z,24.19
2023-05-15T09:19:05.161Z,24.06
2023-05-15T09:20:05.258Z,23.94
2023-05-15T09:21:05.304Z,23.88
2023-05-15T09:22:05.123Z,23.81
2023-05-15T09:24:05.040Z,23.69
2023-05-15T09:25:05.133Z,23.62
2023-05-15T09:26:05.140Z,23.50
2023-05-15T09:27:05.309Z,23.44
2023-05-15T09:28:05.282Z,23.38
2023-05-15T09:29:05.258Z,23.31
2023-05-15T09:30:05.314Z,23.19
2023-05-15T09:31:05.354Z,23.06
2023-05-15T09:32:05.415Z,23.00
2023-05-15T09:33:05.373Z,22.94
2023-05-15T09:34:05.306Z,22.88
2023-05-15T09:35:05.274Z,22.81
2023-05-15T09:36:05.334Z,22.75
2023-05-15T09:37:05.258Z,22.75
2023-05-15T09:38:05.285Z,22.62
2023-05-15T09:39:05.311Z,22.56
2023-05-15T09:40:05.304Z,22.56
2023-05-15T09:41:05.314Z,22.50
2023-05-15T09:42:05.291Z,22.50
2023-05-15T09:43:05.299Z,22.44
2023-05-15T09:45:05.341Z,22.38
2023-05-15T09:47:05.359Z,22.38
2023-05-15T09:48:05.472Z,22.31
2023-05-15T09:49:05.296Z,22.25
2023-05-15T09:50:05.320Z,22.25
2023-05-15T09:51:05.329Z,22.19
2023-05-15T09:52:05.324Z,22.19
2023-05-15T09:53:05.307Z,22.19
2023-05-15T09:54:05.331Z,22.25
2023-05-15T09:55:05.302Z,22.19
2023-05-15T09:57:05.319Z,21.94
2023-05-15T09:58:05.266Z,21.88
2023-05-15T09:59:03.533Z,21.75
2023-05-15T10:00:05.295Z,21.69
2023-05-15T10:01:05.351Z,21.56
2023-05-15T10:02:05.284Z,21.50
2023-05-15T10:03:05.359Z,21.44
2023-05-15T10:04:05.306Z,21.38
2023-05-15T10:05:05.330Z,21.31
2023-05-15T10:06:05.357Z,21.31
2023-05-15T10:07:05.360Z,21.31
2023-05-15T10:09:05.325Z,21.31
2023-05-15T10:10:05.097Z,21.31
2023-05-15T10:11:03.532Z,21.19
2023-05-15T10:12:05.299Z,21.38
2023-05-15T10:13:05.358Z,21.31
2023-05-15T10:14:05.322Z,21.25
2023-05-15T10:15:05.338Z,21.19
2023-05-15T10:16:05.385Z,21.19
2023-05-15T10:17:05.344Z,21.06
2023-05-15T10:19:05.463Z,21.06
2023-05-15T10:22:05.310Z,21.06
2023-05-15T10:23:05.335Z,21.00
2023-05-15T10:24:05.348Z,21.00
2023-05-15T10:25:05.337Z,21.00
2023-05-15T10:26:05.309Z,21.00
2023-05-15T10:27:05.370Z,21.00
2023-05-15T10:28:05.326Z,21.00
2023-05-15T10:30:05.185Z,21.00
2023-05-15T10:31:05.237Z,21.00
2023-05-15T10:32:05.329Z,21.06
2023-05-15T10:33:05.426Z,21.06
2023-05-15T10:34:05.343Z,21.06
2023-05-15T10:35:05.142Z,21.12
2023-05-15T10:36:05.174Z,21.25
2023-05-15T10:37:05.305Z,21.25
2023-05-15T10:38:05.359Z,21.25
2023-05-15T10:39:05.386Z,21.25
2023-05-15T10:40:05.351Z,21.25
2023-05-15T10:41:16.364Z,21.25
2023-05-15T10:42:05.107Z,21.31
2023-05-15T10:43:05.196Z,21.38
2023-05-15T10:44:05.198Z,21.44
2023-05-15T10:45:05.141Z,21.44
2023-05-15T10:46:05.211Z,21.50
2023-05-15T10:47:05.200Z,21.56
2023-05-15T10:48:05.402Z,21.50
2023-05-15T10:49:05.370Z,21.56
2023-05-15T10:50:05.322Z,21.62
2023-05-15T10:51:05.367Z,21.69
2023-05-15T10:52:05.324Z,21.69
2023-05-15T10:53:05.378Z,21.75
2023-05-15T10:54:05.363Z,21.69
2023-05-15T10:55:05.339Z,21.69
2023-05-15T10:56:05.390Z,21.69
2023-05-15T10:57:05.360Z,21.69
2023-05-15T10:58:05.348Z,21.62
2023-05-15T10:59:05.337Z,21.62
2023-05-15T11:00:05.368Z,21.62
2023-05-15T11:01:05.351Z,21.69
2023-05-15T11:02:05.351Z,21.62
2023-05-15T11:04:05.118Z,21.62
2023-05-15T11:05:05.330Z,21.62
2023-05-15T11:06:05.358Z,21.56
2023-05-15T11:07:05.338Z,21.50
2023-05-15T11:08:05.352Z,21.62
2023-05-15T11:09:05.388Z,21.56
2023-05-15T11:10:06.172Z,21.50
2023-05-15T11:11:05.363Z,21.44
2023-05-15T11:12:05.388Z,21.44
2023-05-15T11:13:05.351Z,21.38
2023-05-15T11:14:05.204Z,21.31
2023-05-15T11:15:05.370Z,21.31
2023-05-15T11:16:05.326Z,21.38
2023-05-15T11:17:05.405Z,21.38
2023-05-15T11:18:05.457Z,21.62
2023-05-15T11:21:05.369Z,21.56
2023-05-15T11:23:05.347Z,21.50
2023-05-15T11:24:05.367Z,21.50
2023-05-15T11:25:05.404Z,21.56
2023-05-15T11:26:05.360Z,21.56
2023-05-15T11:27:05.374Z,21.56
2023-05-15T11:28:05.417Z,21.62
2023-05-15T11:29:05.409Z,21.62
2023-05-15T11:31:05.411Z,21.75
2023-05-15T11:32:05.359Z,21.75
2023-05-15T11:33:05.565Z,21.69
2023-05-15T11:34:05.364Z,21.75
2023-05-15T11:35:05.379Z,21.75
2023-05-15T11:36:05.415Z,21.69
2023-05-15T11:37:05.403Z,21.69
2023-05-15T11:39:05.381Z,21.62
2023-05-15T11:40:05.383Z,21.62
2023-05-15T11:41:05.404Z,21.69
2023-05-15T11:42:05.396Z,21.69
2023-05-15T11:43:03.613Z,21.69
2023-05-15T11:44:03.601Z,21.81
2023-05-15T11:45:05.399Z,22.00
2023-05-15T11:46:05.409Z,22.00
2023-05-15T11:47:05.420Z,22.00
2023-05-15T11:48:05.446Z,22.00
2023-05-15T11:49:03.511Z,21.94
2023-05-15T11:50:05.416Z,21.94
2023-05-15T11:52:05.369Z,21.81
2023-05-15T11:53:05.422Z,21.88
2023-05-15T11:54:06.377Z,21.88
2023-05-15T11:56:05.381Z,21.81
2023-05-15T11:57:05.415Z,21.88
2023-05-15T11:58:05.406Z,21.94
2023-05-15T11:59:05.414Z,21.94
2023-05-15T12:00:05.445Z,21.94
2023-05-15T12:01:05.402Z,21.94
2023-05-15T12:02:05.414Z,21.88
2023-05-15T12:03:05.485Z,21.94
2023-05-15T12:05:05.276Z,21.88
2023-05-15T12:06:05.166Z,21.81
2023-05-15T12:07:05.427Z,21.81
2023-05-15T12:08:05.404Z,21.81
2023-05-15T12:09:05.417Z,21.81
2023-05-15T12:10:05.429Z,21.75
2023-05-15T12:12:05.434Z,21.56
2023-05-15T12:13:05.415Z,21.50
2023-05-15T12:14:05.421Z,21.44
2023-05-15T12:15:05.424Z,21.38
2023-05-15T12:16:05.468Z,21.31
2023-05-15T12:17:05.471Z,21.25
2023-05-15T12:18:05.485Z,21.19
2023-05-15T12:20:05.409Z,21.06
2023-05-15T12:21:05.249Z,21.00
2023-05-15T12:22:03.533Z,20.94
2023-05-15T12:23:03.617Z,21.00
2023-05-15T12:24:07.954Z,20.94
2023-05-15T12:25:05.460Z,20.94
2023-05-15T12:26:05.423Z,20.88
2023-05-15T12:27:05.438Z,20.81
2023-05-15T12:29:05.277Z,20.75
2023-05-15T12:30:05.460Z,20.75
2023-05-15T12:31:05.427Z,20.75
2023-05-15T12:32:03.578Z,20.69
2023-05-15T12:33:05.490Z,20.69
2023-05-15T12:35:05.463Z,20.62
2023-05-15T12:37:05.457Z,20.56
2023-05-15T12:38:05.415Z,20.56
2023-05-15T12:40:05.301Z,20.50
2023-05-15T12:41:05.531Z,20.56
2023-05-15T12:42:05.465Z,20.81
2023-05-15T12:43:05.470Z,20.69
2023-05-15T12:45:05.435Z,20.62
2023-05-15T12:46:05.450Z,20.62
2023-05-15T12:47:05.463Z,20.56
2023-05-15T12:48:05.527Z,20.50
2023-05-15T12:49:05.432Z,20.56
2023-05-15T12:51:05.472Z,20.56
2023-05-15T12:52:05.427Z,20.56
2023-05-15T12:53:05.445Z,20.56
2023-05-15T12:54:05.272Z,20.62
2023-05-15T12:55:05.458Z,20.62
2023-05-15T12:57:05.469Z,20.69
2023-05-15T12:59:05.273Z,20.75
2023-05-15T13:00:05.273Z,20.75
2023-05-15T13:01:05.508Z,20.75
2023-05-15T13:02:05.472Z,20.75
2023-05-15T13:03:05.548Z,20.81
2023-05-15T13:05:05.442Z,20.88
2023-05-15T13:06:05.291Z,20.88
2023-05-15T13:07:05.437Z,20.94
2023-05-15T13:08:05.460Z,21.00
2023-05-15T13:09:05.460Z,21.06
2023-05-15T13:10:05.499Z,21.06
2023-05-15T13:11:05.462Z,21.06
2023-05-15T13:12:05.467Z,21.06
2023-05-15T13:13:05.455Z,21.12
2023-05-15T13:14:05.455Z,21.12
2023-05-15T13:15:05.486Z,21.19
2023-05-15T13:16:05.957Z,21.19
2023-05-15T13:17:03.604Z,21.19
2023-05-15T13:18:03.758Z,21.25
2023-05-15T13:19:03.504Z,21.25
2023-05-15T13:20:03.612Z,21.25
2023-05-15T13:21:05.506Z,21.31
2023-05-15T13:23:05.494Z,21.38
2023-05-15T13:24:05.483Z,21.38
2023-05-15T13:26:05.481Z,21.44
2023-05-15T13:27:05.502Z,21.44
2023-05-15T13:29:05.360Z,21.56
2023-05-15T13:30:05.328Z,21.56
2023-05-15T13:31:05.366Z,21.56
2023-05-15T13:33:05.518Z,21.56
2023-05-15T13:34:05.480Z,21.56
2023-05-15T13:35:05.515Z,21.56
2023-05-15T13:36:05.577Z,21.56
2023-05-15T13:37:05.479Z,21.56
2023-05-15T13:38:05.469Z,21.56
2023-05-15T13:39:05.493Z,21.62
2023-05-15T13:40:05.481Z,21.62
2023-05-15T13:41:03.627Z,21.69
2023-05-15T13:42:03.627Z,21.75
2023-05-15T13:44:05.475Z,22.12
2023-05-15T13:45:05.493Z,22.06
2023-05-15T13:46:05.524Z,22.00
2023-05-15T13:48:05.562Z,21.94
2023-05-15T13:49:05.816Z,21.94
2023-05-15T13:50:05.705Z,21.88
2023-05-15T13:52:05.577Z,21.75
2023-05-15T13:53:05.539Z,21.69
2023-05-15T13:54:05.546Z,21.69
2023-05-15T13:56:05.543Z,21.62
2023-05-15T13:58:05.367Z,21.50
2023-05-15T13:59:05.491Z,21.50
2023-05-15T14:00:05.405Z,21.50
2023-05-15T14:01:05.576Z,21.44
2023-05-15T14:02:05.571Z,21.44
2023-05-15T14:03:05.671Z,21.50
2023-05-15T14:04:03.579Z,21.50
2023-05-15T14:06:05.300Z,21.50
2023-05-15T14:07:05.539Z,21.50
2023-05-15T14:08:05.544Z,21.50
2023-05-15T14:09:05.541Z,21.44
2023-05-15T14:10:05.408Z,21.44
2023-05-15T14:11:05.487Z,21.44
2023-05-15T14:12:05.529Z,21.50
2023-05-15T14:13:05.508Z,21.50
2023-05-15T14:14:05.525Z,21.50
2023-05-15T14:16:03.798Z,21.44
2023-05-15T14:17:05.396Z,21.44
2023-05-15T14:18:05.575Z,21.44
2023-05-15T14:19:05.588Z,21.44
2023-05-15T14:20:05.354Z,21.44
2023-05-15T14:21:05.387Z,21.44
2023-05-15T14:22:05.348Z,21.44
2023-05-15T14:23:05.528Z,21.44
2023-05-15T14:24:05.568Z,21.44
2023-05-15T14:26:05.574Z,21.38
2023-05-15T14:27:05.539Z,21.38
2023-05-15T14:28:05.521Z,21.44
2023-05-15T14:30:03.762Z,21.38
2023-05-15T14:32:03.825Z,21.44
2023-05-15T14:33:05.401Z,21.44
2023-05-15T14:34:05.524Z,21.44
2023-05-15T14:35:05.529Z,21.44
2023-05-15T14:36:05.560Z,21.44
2023-05-15T14:37:05.539Z,21.50
2023-05-15T14:38:05.528Z,21.50
2023-05-15T14:39:05.552Z,21.50
2023-05-15T14:40:05.577Z,21.50
2023-05-15T14:41:05.537Z,21.44
2023-05-15T14:42:05.556Z,21.44
2023-05-15T14:43:05.559Z,21.44
2023-05-15T14:44:05.409Z,21.38
2023-05-15T14:46:05.360Z,21.38
2023-05-15T14:47:05.550Z,21.38
2023-05-15T14:48:05.595Z,21.38
2023-05-15T14:49:05.572Z,21.31
2023-05-15T14:51:05.566Z,21.31
2023-05-15T14:52:05.582Z,21.25
2023-05-15T14:53:05.560Z,21.25
2023-05-15T14:54:03.517Z,21.25